createdAt,value
2018-05-08T00:01:49.005Z,99711.84
2018-05-08T00:04:16.586Z,99711.17
2018-05-08T00:06:44.179Z,99708.25
2018-05-08T00:09:11.767Z,99704.56
2018-05-08T00:11:39.280Z,99705.22
2018-05-08T00:14:06.858Z,99703.76
2018-05-08T00:16:34.392Z,99705.31
2018-05-08T00:19:02.009Z,99704.24
2018-05-08T00:21:29.590Z,99700.81
2018-05-08T00:23:57.161Z,99700.55
2018-05-08T00:26:24.729Z,99699.83
2018-05-08T00:28:52.279Z,99699.12
2018-05-08T00:31:19.840Z,99686.45
2018-05-08T00:33:47.414Z,99693.70
2018-05-08T00:36:15.016Z,99683.27
2018-05-08T00:38:42.604Z,99683.06
2018-05-08T00:41:10.246Z,99677.45
2018-05-08T00:43:37.793Z,99671.06
2018-05-08T00:46:05.394Z,99673.91
2018-05-08T00:48:33.088Z,99669.73
2018-05-08T00:51:00.705Z,99667.71
2018-05-08T00:53:28.271Z,99662.10
2018-05-08T00:55:55.829Z,99659.21
2018-05-08T00:58:23.399Z,99654.05
2018-05-08T01:00:50.952Z,99651.59
2018-05-08T01:03:18.501Z,99651.74
2018-05-08T01:05:46.080Z,99648.76
2018-05-08T01:08:13.642Z,99652.44
2018-05-08T01:10:41.216Z,99652.95
2018-05-08T01:13:08.766Z,99656.09
2018-05-08T01:15:36.712Z,99658.93
2018-05-08T01:18:04.490Z,99654.68
2018-05-08T01:20:32.039Z,99654.38
2018-05-08T01:22:59.636Z,99658.16
2018-05-08T01:25:28.215Z,99657.42
2018-05-08T01:27:55.763Z,99656.61
2018-05-08T01:30:23.358Z,99651.97
2018-05-08T01:32:50.939Z,99648.59
2018-05-08T01:35:18.545Z,99640.36
2018-05-08T01:37:46.688Z,99650.64
2018-05-08T01:40:14.276Z,99645.93
2018-05-08T01:42:41.859Z,99643.52
2018-05-08T01:45:09.482Z,99641.43
2018-05-08T01:47:37.036Z,99638.05
2018-05-08T01:50:04.603Z,99639.97
2018-05-08T01:52:32.153Z,99639.30
2018-05-08T01:54:59.708Z,99638.06
2018-05-08T01:57:27.272Z,99636.52
2018-05-08T01:59:54.865Z,99628.25
2018-05-08T02:02:22.519Z,99632.44
2018-05-08T02:04:50.044Z,99627.70
2018-05-08T02:07:17.620Z,99624.77
2018-05-08T02:09:45.195Z,99621.33
2018-05-08T02:12:12.865Z,99617.47
2018-05-08T02:14:40.393Z,99620.23
2018-05-08T02:17:07.962Z,99616.80
2018-05-08T02:19:35.535Z,99616.45
2018-05-08T02:22:03.126Z,99610.11
2018-05-08T02:24:30.678Z,99617.11
2018-05-08T02:26:58.252Z,99610.59
2018-05-08T02:29:25.813Z,99606.28
2018-05-08T02:31:53.369Z,99609.92
2018-05-08T02:34:20.933Z,99600.36
2018-05-08T02:36:48.602Z,99605.80
2018-05-08T02:39:16.153Z,99598.87
2018-05-08T02:41:43.767Z,99600.27
2018-05-08T02:44:11.328Z,99597.73
2018-05-08T02:46:38.883Z,99596.08
2018-05-08T02:49:06.417Z,99602.72
2018-05-08T02:51:34.075Z,99605.00
2018-05-08T02:54:01.675Z,99608.61
2018-05-08T02:56:29.235Z,99598.13
2018-05-08T02:58:56.817Z,99603.53
2018-05-08T03:01:24.387Z,99605.00
2018-05-08T03:03:51.934Z,99601.98
2018-05-08T03:06:19.504Z,99597.66
2018-05-08T03:08:47.078Z,99599.09
2018-05-08T03:11:14.638Z,99596.55
2018-05-08T03:13:42.199Z,99596.19
2018-05-08T03:16:09.812Z,99603.30
2018-05-08T03:18:37.384Z,99598.54
2018-05-08T03:21:04.947Z,99604.77
2018-05-08T03:23:32.492Z,99601.77
2018-05-08T03:26:00.089Z,99594.84
2018-05-08T03:28:27.652Z,99597.94
2018-05-08T03:30:55.208Z,99597.14
2018-05-08T03:33:22.767Z,99596.80
2018-05-08T03:35:50.321Z,99597.75
2018-05-08T03:38:17.891Z,99599.22
2018-05-08T03:40:45.435Z,99598.42
2018-05-08T03:43:12.969Z,99591.45
2018-05-08T03:45:41.057Z,99590.19
2018-05-08T03:48:08.641Z,99590.72
2018-05-08T03:50:36.207Z,99584.13
2018-05-08T03:53:03.803Z,99588.23
2018-05-08T03:55:31.360Z,99584.28
2018-05-08T03:57:59.013Z,99580.39
2018-05-08T04:00:38.328Z,99582.24
2018-05-08T04:09:35.102Z,99573.83
2018-05-08T04:12:02.697Z,99572.02
2018-05-08T04:14:30.414Z,99569.33
2018-05-08T04:16:57.996Z,99568.82
2018-05-08T04:19:25.658Z,99567.50
2018-05-08T04:21:53.270Z,99567.45
2018-05-08T04:24:20.853Z,99558.58
2018-05-08T04:26:48.442Z,99565.15
2018-05-08T04:29:16.064Z,99548.55
2018-05-08T04:31:43.623Z,99557.13
2018-05-08T04:34:11.197Z,99555.77
2018-05-08T04:36:38.867Z,99553.08
2018-05-08T04:39:07.188Z,99560.48
2018-05-08T04:41:34.751Z,99558.55
2018-05-08T04:44:02.327Z,99554.95
2018-05-08T04:46:29.933Z,99552.12
2018-05-08T04:48:57.535Z,99548.45
2018-05-08T04:51:25.121Z,99552.35
2018-05-08T04:53:52.731Z,99549.96
2018-05-08T04:56:20.266Z,99551.58
2018-05-08T04:58:48.170Z,99543.02
2018-05-08T05:01:16.145Z,99541.05
2018-05-08T05:03:44.209Z,99545.67
2018-05-08T05:06:12.655Z,99537.50
2018-05-08T05:08:40.227Z,99536.52
2018-05-08T05:11:07.846Z,99533.64
2018-05-08T05:13:35.341Z,99530.28
2018-05-08T05:16:02.872Z,99531.36
2018-05-08T05:18:30.568Z,99528.50
2018-05-08T05:20:58.133Z,99527.31
2018-05-08T05:23:25.706Z,99526.18
2018-05-08T05:25:53.245Z,99530.73
2018-05-08T05:28:20.802Z,99523.39
2018-05-08T05:30:48.353Z,99522.67
2018-05-08T05:33:15.957Z,99524.81
2018-05-08T05:35:43.577Z,99529.15
2018-05-08T05:38:11.217Z,99529.57
2018-05-08T05:40:38.776Z,99529.77
2018-05-08T05:43:06.352Z,99518.43
2018-05-08T05:45:33.896Z,99517.15
2018-05-08T05:48:01.660Z,99513.64
2018-05-08T05:50:29.274Z,99511.34
2018-05-08T05:52:56.940Z,99515.27
2018-05-08T05:55:24.530Z,99509.56
2018-05-08T05:57:52.092Z,99508.28
2018-05-08T06:00:19.647Z,99506.93
2018-05-08T06:02:47.202Z,99505.35
2018-05-08T06:07:46.981Z,99510.20
2018-05-08T06:10:14.851Z,99503.45
2018-05-08T06:12:42.398Z,99510.16
2018-05-08T06:15:10.289Z,99504.70
2018-05-08T06:17:38.210Z,99508.48
2018-05-08T06:20:05.923Z,99499.74
2018-05-08T06:22:33.456Z,99501.21
2018-05-08T06:25:01.020Z,99496.95
2018-05-08T06:27:28.631Z,99494.58
2018-05-08T06:29:56.324Z,99499.97
2018-05-08T06:32:23.980Z,99497.96
2018-05-08T06:34:51.598Z,99497.35
2018-05-08T06:37:19.209Z,99492.75
2018-05-08T06:39:47.548Z,99490.37
2018-05-08T06:42:15.103Z,99487.85
2018-05-08T06:44:42.657Z,99481.55
2018-05-08T06:47:10.237Z,99488.79
2018-05-08T06:49:38.220Z,99486.09
2018-05-08T06:52:05.798Z,99486.17
2018-05-08T06:54:33.428Z,99474.77
2018-05-08T06:57:01.054Z,99484.50
2018-05-08T06:59:28.756Z,99482.64
2018-05-08T07:01:56.490Z,99484.70
2018-05-08T07:04:24.118Z,99493.63
2018-05-08T07:06:51.791Z,99480.81
2018-05-08T07:09:19.532Z,99482.31
2018-05-08T07:11:47.173Z,99478.86
2018-05-08T07:14:14.789Z,99475.56
2018-05-08T07:16:43.025Z,99468.52
2018-05-08T07:19:10.581Z,99470.42
2018-05-08T07:21:38.287Z,99465.30
2018-05-08T07:24:05.920Z,99471.55
2018-05-08T07:26:33.589Z,99478.20
2018-05-08T07:29:01.427Z,99481.38
2018-05-08T07:31:29.049Z,99466.46
2018-05-08T07:33:56.680Z,99468.53
2018-05-08T07:36:24.322Z,99472.48
2018-05-08T07:38:52.017Z,99481.63
2018-05-08T07:41:19.680Z,99475.61
2018-05-08T07:43:47.353Z,99470.48
2018-05-08T07:46:15.169Z,99469.34
2018-05-08T07:48:42.835Z,99471.12
2018-05-08T07:51:10.610Z,99470.71
2018-05-08T07:53:38.255Z,99469.80
2018-05-08T07:56:05.818Z,99470.00
2018-05-08T07:58:33.346Z,99471.94
2018-05-08T08:01:00.933Z,99474.52
2018-05-08T08:03:28.482Z,99476.74
2018-05-08T08:05:56.072Z,99470.98
2018-05-08T08:08:23.671Z,99465.76
2018-05-08T08:10:51.225Z,99466.69
2018-05-08T08:13:18.831Z,99469.84
2018-05-08T08:15:46.425Z,99468.62
2018-05-08T08:18:13.958Z,99465.02
2018-05-08T08:20:41.584Z,99473.72
2018-05-08T08:23:09.201Z,99461.69
2018-05-08T08:25:36.802Z,99462.58
2018-05-08T08:28:04.359Z,99466.69
2018-05-08T08:30:32.105Z,99460.59
2018-05-08T08:32:59.792Z,99451.36
2018-05-08T08:35:27.372Z,99456.53
2018-05-08T08:37:54.948Z,99457.38
2018-05-08T08:40:22.638Z,99447.34
2018-05-08T08:42:50.259Z,99456.66
2018-05-08T08:45:17.817Z,99444.30
2018-05-08T08:47:46.510Z,99449.12
2018-05-08T08:50:13.996Z,99445.78
2018-05-08T08:52:41.613Z,99455.16
2018-05-08T08:55:09.136Z,99446.86
2018-05-08T08:57:36.781Z,99449.05
2018-05-08T09:00:04.557Z,99444.22
2018-05-08T09:02:32.168Z,99455.83
2018-05-08T09:04:59.701Z,99448.12
2018-05-08T09:07:27.278Z,99446.84
2018-05-08T09:09:54.824Z,99439.13
2018-05-08T09:12:22.382Z,99441.78
2018-05-08T09:14:49.932Z,99431.19
2018-05-08T09:17:17.491Z,99431.41
2018-05-08T09:19:45.133Z,99441.30
2018-05-08T09:22:12.713Z,99433.34
2018-05-08T09:24:40.245Z,99425.90
2018-05-08T09:27:07.791Z,99426.05
2018-05-08T09:29:35.376Z,99416.38
2018-05-08T09:32:02.938Z,99414.08
2018-05-08T09:34:30.465Z,99413.84
2018-05-08T09:36:58.060Z,99408.69
2018-05-08T09:39:26.334Z,99408.94
2018-05-08T09:41:53.890Z,99404.59
2018-05-08T09:44:21.443Z,99409.44
2018-05-08T09:46:48.980Z,99398.55
2018-05-08T09:49:16.499Z,99389.14
2018-05-08T09:51:44.050Z,99401.38
2018-05-08T09:54:11.682Z,99399.59
2018-05-08T09:56:39.241Z,99380.59
2018-05-08T09:59:06.786Z,99366.95
2018-05-08T10:01:34.424Z,99371.62
2018-05-08T10:04:01.975Z,99381.31
2018-05-08T10:06:29.572Z,99373.69
2018-05-08T10:08:57.159Z,99368.20
2018-05-08T10:11:24.795Z,99368.64
2018-05-08T10:13:52.410Z,99364.70
2018-05-08T10:16:20.002Z,99355.56
2018-05-08T10:18:47.573Z,99352.09
2018-05-08T10:21:15.094Z,99346.75
2018-05-08T10:23:42.670Z,99350.25
2018-05-08T10:26:10.234Z,99348.69
2018-05-08T10:28:37.778Z,99344.79
2018-05-08T10:31:05.327Z,99341.38
2018-05-08T10:33:32.903Z,99338.00
2018-05-08T10:36:00.542Z,99332.70
2018-05-08T10:38:28.241Z,99328.98
2018-05-08T10:40:55.814Z,99331.00
2018-05-08T10:43:24.340Z,99313.87
2018-05-08T10:45:51.898Z,99330.80
2018-05-08T10:48:20.259Z,99326.22
2018-05-08T10:50:47.858Z,99312.86
2018-05-08T10:53:15.409Z,99314.75
2018-05-08T10:55:43.025Z,99314.09
2018-05-08T10:58:10.667Z,99305.83
2018-05-08T11:00:38.212Z,99295.92
2018-05-08T11:03:05.782Z,99293.68
2018-05-08T11:05:33.334Z,99301.44
2018-05-08T11:08:00.921Z,99302.88
2018-05-08T11:10:28.551Z,99291.91
2018-05-08T11:12:56.111Z,99288.73
2018-05-08T11:15:23.613Z,99300.16
2018-05-08T11:17:51.135Z,99285.50
2018-05-08T11:20:18.701Z,99280.98
2018-05-08T11:22:46.256Z,99296.44
2018-05-08T11:25:13.796Z,99279.27
2018-05-08T11:27:41.378Z,99264.22
2018-05-08T11:30:08.955Z,99261.25
2018-05-08T11:32:36.741Z,99261.72
2018-05-08T11:35:05.157Z,99257.21
2018-05-08T11:37:33.028Z,99252.02
2018-05-08T11:40:00.629Z,99248.30
2018-05-08T11:42:28.164Z,99253.47
2018-05-08T11:44:55.724Z,99245.11
2018-05-08T11:47:23.283Z,99247.09
2018-05-08T11:49:50.908Z,99237.11
2018-05-08T11:52:18.480Z,99241.69
2018-05-08T11:54:46.069Z,99232.02
2018-05-08T11:57:13.603Z,99224.34
2018-05-08T11:59:41.192Z,99227.50
2018-05-08T12:02:08.853Z,99215.63
2018-05-08T12:04:36.419Z,99207.09
2018-05-08T12:07:04.045Z,99206.82
2018-05-08T12:09:31.647Z,99213.24
2018-05-08T12:11:59.192Z,99200.78
2018-05-08T12:14:26.951Z,99204.72
2018-05-08T12:16:54.548Z,99210.98
2018-05-08T12:19:22.107Z,99199.75
2018-05-08T12:21:49.722Z,99197.70
2018-05-08T12:24:18.133Z,99202.36
2018-05-08T12:26:45.725Z,99193.97
2018-05-08T12:29:13.282Z,99191.59
2018-05-08T12:31:40.913Z,99189.58
2018-05-08T12:34:08.528Z,99183.80
2018-05-08T12:36:36.080Z,99179.81
2018-05-08T12:39:03.680Z,99178.56
2018-05-08T12:41:31.257Z,99184.47
2018-05-08T12:43:58.844Z,99185.25
2018-05-08T12:46:26.395Z,99192.17
2018-05-08T12:48:53.981Z,99178.28
2018-05-08T12:51:21.507Z,99177.10
2018-05-08T12:53:49.785Z,99175.50
2018-05-08T12:56:17.413Z,99160.78
2018-05-08T12:58:44.951Z,99173.55
2018-05-08T13:01:12.506Z,99180.38
2018-05-08T13:03:40.039Z,99161.99
2018-05-08T13:06:07.591Z,99155.63
2018-05-08T13:08:35.116Z,99162.34
2018-05-08T13:11:02.808Z,99167.34
2018-05-08T13:13:30.278Z,99150.66
2018-05-08T13:15:57.845Z,99152.62
2018-05-08T13:18:25.549Z,99150.51
2018-05-08T13:20:56.585Z,99152.53
2018-05-08T13:23:24.147Z,99146.97
2018-05-08T13:25:51.747Z,99156.54
2018-05-08T13:28:19.380Z,99133.03
2018-05-08T13:30:46.937Z,99129.84
2018-05-08T13:33:14.468Z,99128.48
2018-05-08T13:35:42.038Z,99126.13
2018-05-08T13:38:09.657Z,99131.95
2018-05-08T13:40:37.319Z,99133.30
2018-05-08T13:43:04.796Z,99127.47
2018-05-08T13:45:32.369Z,99138.37
2018-05-08T13:47:59.984Z,99124.20
2018-05-08T13:50:27.511Z,99133.44
2018-05-08T13:52:55.065Z,99129.30
2018-05-08T13:55:22.663Z,99120.66
2018-05-08T13:57:50.230Z,99114.80
2018-05-08T14:00:17.763Z,99107.63
2018-05-08T14:02:45.386Z,99124.05
2018-05-08T14:05:12.920Z,99109.21
2018-05-08T14:07:40.454Z,99101.61
2018-05-08T14:10:08.046Z,99105.33
2018-05-08T14:12:35.663Z,99109.14
2018-05-08T14:15:03.251Z,99097.77
2018-05-08T14:17:30.800Z,99100.00
2018-05-08T14:19:58.352Z,99089.95
2018-05-08T14:22:25.956Z,99089.19
2018-05-08T14:24:53.603Z,99076.00
2018-05-08T14:27:21.238Z,99080.39
2018-05-08T14:29:48.855Z,99078.25
2018-05-08T14:32:16.446Z,99072.81
2018-05-08T14:34:44.015Z,99065.41
2018-05-08T14:37:11.652Z,99070.47
2018-05-08T14:39:39.217Z,99072.50
2018-05-08T14:42:06.790Z,99079.34
2018-05-08T14:44:34.386Z,99073.41
2018-05-08T14:47:01.950Z,99068.77
2018-05-08T14:49:29.517Z,99066.19
2018-05-08T14:51:57.085Z,99060.70
2018-05-08T14:54:24.618Z,99055.80
2018-05-08T14:56:52.175Z,99058.41
2018-05-08T14:59:19.762Z,99056.72
2018-05-08T15:01:47.381Z,99053.52
2018-05-08T15:04:14.986Z,99056.64
2018-05-08T15:06:42.575Z,99046.77
2018-05-08T15:09:10.129Z,99046.31
2018-05-08T15:11:37.692Z,99054.17
2018-05-08T15:14:05.510Z,99047.02
2018-05-08T15:16:33.147Z,99059.86
2018-05-08T15:19:00.682Z,99041.61
2018-05-08T15:21:28.357Z,99041.35
2018-05-08T15:23:55.997Z,99053.11
2018-05-08T15:26:23.600Z,99043.64
2018-05-08T15:28:51.196Z,99037.38
2018-05-08T15:31:18.806Z,99032.19
2018-05-08T15:33:46.378Z,99026.19
2018-05-08T15:36:13.941Z,99030.58
2018-05-08T15:38:41.542Z,99026.86
2018-05-08T15:41:09.213Z,99028.11
2018-05-08T15:43:36.698Z,99026.03
2018-05-08T15:46:04.260Z,99016.77
2018-05-08T15:48:31.825Z,99018.20
2018-05-08T15:50:59.588Z,99011.93
2018-05-08T15:53:27.266Z,99024.17
2018-05-08T15:55:54.839Z,99008.97
2018-05-08T15:58:22.526Z,99016.20
2018-05-08T16:00:50.063Z,99006.23
2018-05-08T16:03:17.621Z,98999.88
2018-05-08T16:05:45.195Z,98994.41
2018-05-08T16:08:12.735Z,98998.01
2018-05-08T16:10:40.300Z,98996.20
2018-05-08T16:13:07.884Z,98996.61
2018-05-08T16:15:35.476Z,98991.55
2018-05-08T16:18:04.196Z,98988.05
2018-05-08T16:20:31.764Z,98987.68
2018-05-08T16:22:59.347Z,98994.06
2018-05-08T16:25:26.936Z,98995.27
2018-05-08T16:27:54.589Z,98993.56
2018-05-08T16:30:22.220Z,98994.55
2018-05-08T16:32:49.775Z,99002.37
2018-05-08T16:35:17.345Z,98992.73
2018-05-08T16:37:44.967Z,98989.20
2018-05-08T16:40:12.551Z,98976.38
2018-05-08T16:42:40.363Z,98993.93
2018-05-08T16:45:07.984Z,98996.30
2018-05-08T16:47:35.569Z,99000.07
2018-05-08T16:50:03.309Z,98997.80
2018-05-08T16:52:30.879Z,98993.99
2018-05-08T16:54:58.458Z,98985.52
2018-05-08T16:57:26.023Z,98991.39
2018-05-08T16:59:54.072Z,98989.28
2018-05-08T17:02:21.637Z,98990.62
2018-05-08T17:04:49.234Z,98992.61
2018-05-08T17:07:16.799Z,98991.00
2018-05-08T17:09:44.381Z,98991.66
2018-05-08T17:12:12.004Z,98994.91
2018-05-08T17:14:39.571Z,98990.98
2018-05-08T17:17:07.129Z,98986.02
2018-05-08T17:19:34.778Z,98971.84
2018-05-08T17:22:02.311Z,98988.50
2018-05-08T17:24:29.959Z,98986.09
2018-05-08T17:26:57.493Z,98986.06
2018-05-08T17:29:25.082Z,98987.54
2018-05-08T17:31:52.644Z,98982.61
2018-05-08T17:34:20.234Z,98980.45
2018-05-08T17:36:47.777Z,98980.50
2018-05-08T17:39:15.341Z,98988.70
2018-05-08T17:41:42.889Z,98986.89
2018-05-08T17:44:10.465Z,98987.69
2018-05-08T17:46:38.129Z,98985.77
2018-05-08T17:49:05.753Z,98983.11
2018-05-08T17:51:33.329Z,98980.88
2018-05-08T17:54:00.896Z,98985.79
2018-05-08T17:56:28.557Z,98963.83
2018-05-08T17:58:56.175Z,98986.94
2018-05-08T18:01:23.712Z,98972.03
2018-05-08T18:03:51.261Z,98986.43
2018-05-08T18:06:18.833Z,98970.48
2018-05-08T18:08:46.417Z,98986.47
2018-05-08T18:11:13.957Z,98986.98
2018-05-08T18:13:41.525Z,98984.56
2018-05-08T18:16:09.120Z,98990.72
2018-05-08T18:18:38.350Z,98982.66
2018-05-08T18:21:05.940Z,98993.61
2018-05-08T18:23:33.556Z,98993.70
2018-05-08T18:26:01.941Z,98997.39
2018-05-08T18:28:30.088Z,98999.97
2018-05-08T18:30:58.295Z,99002.19
2018-05-08T18:33:26.432Z,98995.94
2018-05-08T18:35:54.058Z,98997.17
2018-05-08T18:38:21.704Z,98999.77
2018-05-08T18:40:49.361Z,98996.79
2018-05-08T18:43:16.959Z,99002.33
2018-05-08T18:45:44.498Z,99006.52
2018-05-08T18:48:12.073Z,98990.85
2018-05-08T18:50:39.697Z,98996.63
2018-05-08T18:53:08.957Z,99009.27
2018-05-08T18:55:36.584Z,99011.73
2018-05-08T18:58:04.148Z,99008.76
2018-05-08T19:00:37.429Z,99014.38
2018-05-08T19:03:05.041Z,99014.58
2018-05-08T19:05:32.716Z,99017.85
2018-05-08T19:08:00.407Z,99018.59
2018-05-08T19:10:28.092Z,99015.36
2018-05-08T19:12:55.946Z,99023.86
2018-05-08T19:15:29.162Z,99027.46
2018-05-08T19:17:56.873Z,99026.94
2018-05-08T19:20:24.599Z,99030.91
2018-05-08T19:22:52.279Z,99036.02
2018-05-08T19:25:19.943Z,99036.02
2018-05-08T19:27:48.498Z,99039.83
2018-05-08T19:30:21.466Z,99039.20
2018-05-08T19:32:49.056Z,99048.37
2018-05-08T19:35:22.108Z,99047.20
2018-05-08T19:37:55.124Z,99050.16
2018-05-08T19:40:22.844Z,99051.80
2018-05-08T19:42:50.448Z,99053.31
2018-05-08T19:45:18.078Z,99051.59
2018-05-08T19:47:46.148Z,99054.84
2018-05-08T19:50:13.712Z,99063.01
2018-05-08T19:52:41.256Z,99055.54
2018-05-08T19:55:08.835Z,99051.59
2018-05-08T19:57:36.367Z,99052.95
2018-05-08T20:00:03.989Z,99060.07
2018-05-08T20:02:31.584Z,99057.88
2018-05-08T20:04:59.176Z,99062.70
2018-05-08T20:07:26.723Z,99059.16
2018-05-08T20:09:54.311Z,99064.70
2018-05-08T20:12:21.860Z,99068.32
2018-05-08T20:14:49.428Z,99068.31
2018-05-08T20:17:17.015Z,99065.69
2018-05-08T20:19:44.591Z,99066.18
2018-05-08T20:22:12.169Z,99065.41
2018-05-08T20:24:39.789Z,99064.90
2018-05-08T20:27:07.371Z,99068.95
2018-05-08T20:29:34.949Z,99064.98
2018-05-08T20:32:02.522Z,99071.14
2018-05-08T20:34:30.166Z,99070.10
2018-05-08T20:36:57.749Z,99071.73
2018-05-08T20:39:25.393Z,99070.80
2018-05-08T20:41:52.967Z,99068.05
2018-05-08T20:44:20.553Z,99068.45
2018-05-08T20:46:48.117Z,99074.33
2018-05-08T20:49:15.737Z,99068.95
2018-05-08T20:51:43.519Z,99074.19
2018-05-08T20:54:11.036Z,99076.98
2018-05-08T20:56:38.601Z,99080.05
2018-05-08T20:59:06.229Z,99078.84
2018-05-08T21:01:33.816Z,99056.41
2018-05-08T21:04:02.581Z,99077.06
2018-05-08T21:06:30.143Z,99068.66
2018-05-08T21:08:57.703Z,99070.97
2018-05-08T21:11:25.288Z,99070.06
2018-05-08T21:13:52.869Z,99069.66
2018-05-08T21:16:20.438Z,99072.51
2018-05-08T21:18:48.007Z,99075.23
2018-05-08T21:21:15.583Z,99081.60
2018-05-08T21:23:43.133Z,99068.63
2018-05-08T21:26:10.720Z,99069.23
2018-05-08T21:28:43.921Z,99071.84
2018-05-08T21:31:14.284Z,99067.80
2018-05-08T21:33:41.897Z,99079.75
2018-05-08T21:36:09.510Z,99077.41
2018-05-08T21:38:37.060Z,99081.81
2018-05-08T21:41:04.673Z,99078.09
2018-05-08T21:43:32.268Z,99078.95
2018-05-08T21:45:59.907Z,99079.77
2018-05-08T21:48:27.486Z,99082.33
2018-05-08T21:50:55.096Z,99098.91
2018-05-08T21:53:22.646Z,99093.20
2018-05-08T21:55:50.209Z,99088.27
2018-05-08T21:58:17.753Z,99089.12
2018-05-08T22:00:45.327Z,99095.76
2018-05-08T22:03:14.122Z,99100.97
2018-05-08T22:05:41.649Z,99095.03
2018-05-08T22:08:09.220Z,99100.08
2018-05-08T22:10:36.789Z,99097.20
2018-05-08T22:13:04.358Z,99098.84
2018-05-08T22:15:31.877Z,99099.89
2018-05-08T22:17:59.457Z,99101.48
2018-05-08T22:20:27.039Z,99099.02
2018-05-08T22:22:54.664Z,99098.83
2018-05-08T22:25:22.246Z,99098.03
2018-05-08T22:27:49.917Z,99097.75
2018-05-08T22:30:17.495Z,99092.88
2018-05-08T22:32:45.093Z,99092.21
2018-05-08T22:35:12.732Z,99091.75
2018-05-08T22:37:40.340Z,99091.45
2018-05-08T22:40:08.845Z,99098.93
2018-05-08T22:42:36.427Z,99098.33
2018-05-08T22:45:04.057Z,99090.10
2018-05-08T22:47:31.617Z,99096.48
2018-05-08T22:49:59.279Z,99089.19
2018-05-08T22:52:26.839Z,99086.91
2018-05-08T22:54:54.407Z,99087.77
2018-05-08T22:57:22.027Z,99086.70
2018-05-08T22:59:49.624Z,99089.92
2018-05-08T23:02:17.179Z,99086.95
2018-05-08T23:04:44.718Z,99088.11
2018-05-08T23:07:12.301Z,99083.52
2018-05-08T23:09:39.837Z,99081.81
2018-05-08T23:12:07.392Z,99077.81
2018-05-08T23:14:34.946Z,99084.06
2018-05-08T23:17:02.519Z,99078.50
2018-05-08T23:19:30.076Z,99078.95
2018-05-08T23:21:57.622Z,99069.02
2018-05-08T23:24:25.190Z,99071.90
2018-05-08T23:26:52.734Z,99062.91
2018-05-08T23:29:20.283Z,99071.00
2018-05-08T23:31:47.879Z,99066.08
2018-05-08T23:34:15.464Z,99063.91
2018-05-08T23:36:43.027Z,99063.01
2018-05-08T23:39:10.604Z,99063.08
2018-05-08T23:41:38.172Z,99062.14
2018-05-08T23:44:05.798Z,99060.88
2018-05-08T23:46:33.371Z,99059.52
2018-05-08T23:49:01.032Z,99051.50
2018-05-08T23:51:28.683Z,99053.67
2018-05-08T23:53:56.292Z,99046.53
2018-05-08T23:56:23.898Z,99044.34
2018-05-08T23:58:51.576Z,99044.26
